Delaware Coastal Information

FAA: GED - ICAO: KGED

Delaware Coastal (Airport) Location

State Delaware
County Sussex
City Georgetown
Delaware Coastal (Airport) is 2 miles southeast of Georgetown, DE.
Latitude 38-41-15.5000N
Longitude 075-21-33.5000W
Elevation 53ft

Delaware Coastal METARs

METAR KGED 200354Z AUTO 25005KT 10SM CLR 15/09 A3009 RMK AO2 SLP188 T01500094
Altimeter 30.09"
Temperature 15.0°C (59.0°F)
Wind 250° at 5KT
Clouds Skies are clear.
Visibility 10.0mi
Time observed: 2021-10-20T03:54:00Z

Delaware Coastal (Airport) Details

Status Operational
Activation N/A
Ownership Public
Usage Public
Chart WASHINGTON
ATC on-site No
Beacon schedule sunset-sunrise
Beacon color clear green

Delaware Coastal (Airport) Contacts

Owner SUSSEX COUNTY COUNCIL
Owner address PO BOX 589, GEORGETOWN, DE 19947
Owner phone 302-855-7770
Manager DAVID & CATHERINE DOYLE
Manager address 1029 PEACH BASKET RD, FELTON, DE 19943
Manager phone 302-284-2101

Delaware Coastal Radio Frequencies

Delaware Coastal (Airport) Radio Frequencies

UNICOM 123
Common traffic advisory frequency (CTAF) 123